Terminal Aerodrome Forecast
Issued by NWS Charleston, WV

Current Version | Previous Version | Graphics & Text | Print | Product List | Glossary On
Versions: 1 2 3 4 5 6 7 8 9 10 11 12 13 14 15 16 17 18 19 20 21 22 23 24
232
FTUS41 KRLX 242326
TAFHTS
TAF
KHTS 242326Z 2500/2524 VRB03KT P6SM BKN110
     FM250400 00000KT P6SM BKN060
     FM250800 00000KT 5SM BR BKN060
     FM251200 00000KT P6SM BKN060
     FM251500 21006KT P6SM BKN090=

USA.gov is the U.S. government's official web portal to all federal, state and local government web resources and services.